Aeroporto :
LOGIN :

Iscrizione | Disclaimer

   EN    FR    IT 

 










Sommario :    VFR   VFR Marginale   IFR   IFR Intensivo   IFR Molto Intensivo
Visibilità : 
Base nubi : 
>= 8 km
>= 3000ft
5 / 8 km
1000 / 3000 ft
1500m / 5 km
500 / 1000 ft
800 / 1500m
200 / 500 ft
< 800m
< 200 ft
Simboli :   Temporali  Nebbia  Neve Forte  Precipitazioni Forti  Vento > 20 kt
SIGMETs :   Varie  Temporali  Ghiacco  Turbolenza  Onda orograficha  Ceneri Vulcaniche






- Altitudine del aeroporto : 844 ft
- Codice IATA : OSR


LKMT - Ostrava-Mosnov

ULTIMO METAR :
  • 191700Z 07004KT CAVOK 16/10 Q1021 NOSIG

METARs OBSOLETI :
  • 191630Z 04005KT CAVOK 16/11 Q1021 NOSIG
  • 191600Z 36002KT CAVOK 17/11 Q1021 NOSIG
  • 191530Z 06003KT CAVOK 19/08 Q1021 NOSIG
  • 191500Z 05005KT CAVOK 19/10 Q1021 NOSIG
  • 191430Z 03005KT 360V060 CAVOK 20/10 Q1022 NOSIG

TAF TAF LKMT
Valido dal 19 a 18 ore il 21 a 00 ore UTC


191700Z 1918/2100 VRB02KT CAVOK
TEMPO 1918/1920 05004KT
PROB30
TEMPO 2002/2006 3000 BR NSC
BECMG 2007/2009 03004KT
BECMG 2017/2019 20003KT



MetMap, La meteo Aeronautica in un colpo d'occhio ! - Copyright ORBIFLY Dicembre 2007 - Disclaimer

ORBIFLY MET'MAP TEAM :

Programmazione e sviluppo : Alexandra Zaïnal
Concezione : Baudouin d'Aumeries
Aiuto per la programmazione : Marc-Olivier Méhu
Supporto tecnico e logistico : Manuel Goepfert
Aiuto per la traduzione : Arnaldo La Scala

Contatto : metmap@orbifly.com




FONTI E CREDITI :

   NOAA